createdAt,value
2023-05-08T00:01:32.493Z,16.13
2023-05-08T00:03:59.990Z,18.98
2023-05-08T00:06:27.831Z,16.08
2023-05-08T00:08:56.012Z,15.45
2023-05-08T00:11:23.112Z,12.45
2023-05-08T00:13:50.741Z,15.43
2023-05-08T00:16:17.893Z,14.77
2023-05-08T00:18:45.793Z,15.05
2023-05-08T00:21:14.134Z,11.82
2023-05-08T00:23:42.344Z,12.18
2023-05-08T00:26:09.457Z,13.27
2023-05-08T00:28:36.957Z,15.60
2023-05-08T00:31:04.235Z,11.50
2023-05-08T00:33:31.879Z,19.55
2023-05-08T00:36:03.471Z,10.80
2023-05-08T00:38:32.278Z,14.00
2023-05-08T00:40:59.688Z,11.55
2023-05-08T00:43:28.458Z,12.85
2023-05-08T00:45:57.451Z,12.25
2023-05-08T00:48:25.494Z,13.50
2023-05-08T00:50:54.456Z,9.25
2023-05-08T00:53:23.252Z,9.70
2023-05-08T00:55:51.757Z,8.65
2023-05-08T00:58:21.974Z,10.77
2023-05-08T01:00:52.330Z,10.80
2023-05-08T01:03:20.883Z,10.25
2023-05-08T01:05:48.649Z,9.40
2023-05-08T01:08:16.138Z,13.35
2023-05-08T01:10:52.932Z,11.25
2023-05-08T01:13:55.816Z,10.32
2023-05-08T01:16:31.629Z,13.75
2023-05-08T01:19:47.048Z,9.98
2023-05-08T01:22:48.115Z,7.57
2023-05-08T01:25:33.804Z,10.48
2023-05-08T01:28:19.221Z,11.32
2023-05-08T01:31:08.410Z,11.85
2023-05-08T01:33:51.581Z,13.13
2023-05-08T01:36:27.233Z,14.07
2023-05-08T01:39:04.734Z,10.13
2023-05-08T01:41:35.694Z,10.20
2023-05-08T01:44:24.757Z,8.27
2023-05-08T01:46:53.857Z,11.70
2023-05-08T01:49:26.427Z,8.48
2023-05-08T01:51:59.468Z,12.00
2023-05-08T01:54:30.950Z,11.85
2023-05-08T01:57:00.133Z,12.30
2023-05-08T01:59:29.081Z,29.60
2023-05-08T02:02:00.998Z,20.70
2023-05-08T02:04:29.102Z,12.18
2023-05-08T02:06:58.387Z,13.85
2023-05-08T02:09:28.436Z,11.10
2023-05-08T02:11:57.192Z,13.82
2023-05-08T02:14:26.970Z,12.93
2023-05-08T02:16:57.354Z,11.13
2023-05-08T02:19:29.145Z,11.93
2023-05-08T02:21:59.438Z,11.45
2023-05-08T02:24:26.509Z,9.75
2023-05-08T02:26:56.048Z,11.93
2023-05-08T02:29:24.641Z,10.30
2023-05-08T02:31:54.338Z,9.93
2023-05-08T02:34:23.832Z,12.32
2023-05-08T02:36:53.747Z,12.35
2023-05-08T02:39:24.976Z,14.13
2023-05-08T02:41:52.556Z,9.93
2023-05-08T02:44:19.745Z,8.02
2023-05-08T02:46:57.976Z,12.45
2023-05-08T02:50:03.846Z,13.23
2023-05-08T02:52:59.694Z,10.68
2023-05-08T02:55:35.931Z,11.18
2023-05-08T02:58:12.544Z,14.10
2023-05-08T03:00:49.069Z,12.25
2023-05-08T03:03:40.743Z,14.35
2023-05-08T03:06:14.114Z,10.25
2023-05-08T03:08:43.463Z,12.10
2023-05-08T03:11:16.650Z,85.73
2023-05-08T03:13:46.669Z,79.05
2023-05-08T03:16:20.527Z,336.52
2023-05-08T03:18:52.575Z,541.92
2023-05-08T03:21:21.576Z,682.20
2023-05-08T03:23:51.495Z,592.85
2023-05-08T03:26:22.300Z,492.55
2023-05-08T03:28:51.257Z,53.92
2023-05-08T03:31:22.345Z,24.90
2023-05-08T03:33:54.000Z,27.48
2023-05-08T03:36:22.566Z,18.13
2023-05-08T03:38:50.058Z,17.00
2023-05-08T03:41:17.316Z,22.45
2023-05-08T03:43:46.150Z,72.82
2023-05-08T03:46:13.990Z,18.15
2023-05-08T03:48:42.569Z,17.45
2023-05-08T03:51:11.261Z,16.38
2023-05-08T03:53:39.326Z,39.50
2023-05-08T03:56:06.745Z,44.67
2023-05-08T03:58:44.444Z,30.95
2023-05-08T04:01:40.859Z,20.90
2023-05-08T04:04:41.932Z,21.85
2023-05-08T04:07:15.300Z,119.90
2023-05-08T04:10:36.005Z,33.72
2023-05-08T04:13:14.163Z,18.38
2023-05-08T04:16:09.653Z,16.30
2023-05-08T04:18:44.299Z,20.77
2023-05-08T04:21:15.652Z,28.58
2023-05-08T04:23:46.242Z,27.63
2023-05-08T04:26:16.957Z,22.38
2023-05-08T04:28:49.015Z,25.38
2023-05-08T04:31:17.172Z,28.67
2023-05-08T04:33:45.520Z,20.45
2023-05-08T04:36:14.190Z,34.95
2023-05-08T04:38:43.727Z,29.17
2023-05-08T04:41:12.220Z,24.88
2023-05-08T04:43:39.657Z,28.98
2023-05-08T04:46:09.037Z,25.35
2023-05-08T04:48:36.201Z,31.38
2023-05-08T04:51:03.757Z,28.00
2023-05-08T04:53:30.906Z,32.78
2023-05-08T04:55:59.280Z,24.50
2023-05-08T04:58:28.935Z,28.83
2023-05-08T05:00:57.492Z,18.48
2023-05-08T05:03:27.283Z,10.18
2023-05-08T05:06:01.717Z,16.85
2023-05-08T05:08:29.636Z,15.50
2023-05-08T05:10:57.632Z,13.70
2023-05-08T05:13:25.368Z,15.18
2023-05-08T05:15:54.517Z,22.60
2023-05-08T05:18:23.262Z,12.57
2023-05-08T05:20:51.625Z,10.00
2023-05-08T05:23:19.388Z,16.65
2023-05-08T05:25:48.048Z,13.10
2023-05-08T05:28:16.136Z,21.13
2023-05-08T05:30:43.308Z,29.52
2023-05-08T05:33:10.925Z,14.48
2023-05-08T05:35:38.044Z,13.80
2023-05-08T05:38:05.516Z,17.27
2023-05-08T05:40:32.570Z,11.63
2023-05-08T05:42:59.975Z,15.05
2023-05-08T05:45:27.447Z,15.52
2023-05-08T05:47:54.950Z,18.73
2023-05-08T05:50:24.758Z,9.70
2023-05-08T05:52:52.788Z,14.68
2023-05-08T05:55:20.881Z,12.60
2023-05-08T05:57:48.998Z,11.95
2023-05-08T06:00:17.460Z,10.40
2023-05-08T06:02:51.088Z,11.27
2023-05-08T06:05:21.369Z,15.07
2023-05-08T06:07:49.623Z,12.50
2023-05-08T06:10:16.707Z,14.30
2023-05-08T06:12:44.061Z,12.82
2023-05-08T06:15:12.801Z,14.30
2023-05-08T06:17:41.643Z,12.20
2023-05-08T06:20:16.566Z,10.70
2023-05-08T06:22:44.478Z,23.00
2023-05-08T06:25:11.953Z,8.45
2023-05-08T06:27:39.459Z,9.75
2023-05-08T06:30:08.604Z,11.60
2023-05-08T06:32:36.415Z,12.70
2023-05-08T06:35:03.918Z,10.32
2023-05-08T06:37:31.706Z,8.18
2023-05-08T06:40:11.044Z,8.63
2023-05-08T06:42:40.309Z,9.55
2023-05-08T06:45:08.751Z,10.05
2023-05-08T06:47:36.286Z,9.88
2023-05-08T06:50:03.611Z,11.07
2023-05-08T06:52:31.043Z,6.93
2023-05-08T06:54:58.166Z,8.00
2023-05-08T06:57:27.285Z,10.77
2023-05-08T06:59:54.369Z,5.80
2023-05-08T07:02:21.737Z,7.10
2023-05-08T07:04:49.105Z,9.80
2023-05-08T07:07:16.786Z,7.57
2023-05-08T07:09:43.949Z,5.88
2023-05-08T07:12:11.371Z,8.77
2023-05-08T07:14:38.475Z,8.63
2023-05-08T07:17:08.562Z,8.88
2023-05-08T07:19:36.652Z,8.25
2023-05-08T07:22:05.579Z,6.78
2023-05-08T07:24:33.170Z,8.07
2023-05-08T07:27:01.204Z,7.43
2023-05-08T07:29:28.237Z,6.32
2023-05-08T07:31:56.586Z,8.43
2023-05-08T07:34:24.669Z,8.93
2023-05-08T07:36:52.238Z,5.28
2023-05-08T07:39:19.482Z,5.60
2023-05-08T07:41:49.890Z,8.65
2023-05-08T07:44:17.434Z,29.45
2023-05-08T07:46:51.701Z,7.60
2023-05-08T07:49:37.574Z,3.63
2023-05-08T07:52:14.919Z,5.30
2023-05-08T07:54:52.063Z,7.28
2023-05-08T07:57:22.792Z,4.57
2023-05-08T07:59:50.561Z,4.95
2023-05-08T08:02:17.861Z,7.78
2023-05-08T08:04:45.574Z,5.82
2023-05-08T08:07:12.921Z,4.30
2023-05-08T08:09:40.004Z,5.88
2023-05-08T08:12:07.495Z,3.70
2023-05-08T08:14:34.594Z,2.83
2023-05-08T08:17:01.957Z,8.18
2023-05-08T08:19:29.067Z,6.47
2023-05-08T08:21:56.537Z,4.95
2023-05-08T08:24:23.816Z,5.30
2023-05-08T08:26:51.212Z,7.18
2023-05-08T08:29:18.258Z,7.03
2023-05-08T08:31:45.804Z,5.63
2023-05-08T08:34:13.624Z,5.68
2023-05-08T08:36:41.079Z,5.22
2023-05-08T08:39:10.412Z,6.97
2023-05-08T08:41:41.953Z,4.55
2023-05-08T08:44:09.603Z,4.60
2023-05-08T08:46:44.068Z,6.28
2023-05-08T08:49:15.767Z,4.43
2023-05-08T08:51:53.586Z,7.40
2023-05-08T08:54:23.395Z,6.60
2023-05-08T08:56:51.993Z,10.38
2023-05-08T08:59:19.820Z,3.83
2023-05-08T09:01:56.468Z,6.75
2023-05-08T09:04:27.207Z,3.55
2023-05-08T09:06:55.032Z,4.55
2023-05-08T09:09:22.705Z,4.13
2023-05-08T09:11:52.405Z,4.28
2023-05-08T09:14:19.567Z,3.40
2023-05-08T09:16:47.076Z,5.78
2023-05-08T09:19:16.121Z,3.78
2023-05-08T09:21:43.835Z,5.68
2023-05-08T09:24:11.080Z,2.92
2023-05-08T09:26:40.618Z,5.07
2023-05-08T09:29:12.345Z,10.07
2023-05-08T09:31:48.931Z,5.22
2023-05-08T09:34:42.360Z,4.93
2023-05-08T09:37:09.646Z,6.47
2023-05-08T09:39:36.812Z,3.90
2023-05-08T09:42:06.018Z,4.57
2023-05-08T09:44:53.271Z,7.83
2023-05-08T09:47:25.238Z,3.53
2023-05-08T09:50:10.881Z,6.25
2023-05-08T09:52:39.438Z,3.00
2023-05-08T09:55:10.952Z,5.05
2023-05-08T09:57:41.015Z,4.90
2023-05-08T10:02:40.882Z,8.52
2023-05-08T10:07:55.365Z,7.85
2023-05-08T10:10:26.278Z,8.57
2023-05-08T10:12:55.633Z,4.80
2023-05-08T10:15:29.757Z,5.60
2023-05-08T10:18:06.154Z,4.35
2023-05-08T10:20:34.755Z,6.68
2023-05-08T10:23:03.538Z,8.65
2023-05-08T10:25:34.735Z,9.02
2023-05-08T10:28:22.670Z,5.20
2023-05-08T10:30:50.647Z,6.93
2023-05-08T10:33:21.580Z,5.75
2023-05-08T10:35:49.119Z,6.25
2023-05-08T10:38:16.968Z,7.30
2023-05-08T10:40:44.677Z,3.95
2023-05-08T10:43:12.577Z,38.03
2023-05-08T10:45:40.321Z,4.55
2023-05-08T10:48:42.420Z,3.95
2023-05-08T10:51:27.808Z,21.67
2023-05-08T10:54:19.426Z,3.95
2023-05-08T10:56:49.016Z,5.38
2023-05-08T10:59:20.688Z,3.67
2023-05-08T11:01:49.573Z,3.95
2023-05-08T11:04:22.487Z,4.28
2023-05-08T11:06:53.203Z,5.03
2023-05-08T11:09:22.260Z,5.78
2023-05-08T11:12:08.636Z,5.40
2023-05-08T11:14:39.655Z,7.25
2023-05-08T11:17:08.526Z,4.50
2023-05-08T11:19:37.037Z,28.63
2023-05-08T11:22:16.203Z,67.18
2023-05-08T11:25:05.131Z,3.88
2023-05-08T11:27:33.947Z,4.05
2023-05-08T11:30:19.937Z,3.65
2023-05-08T11:33:14.258Z,4.25
2023-05-08T11:35:52.095Z,3.53
2023-05-08T11:38:35.833Z,8.32
2023-05-08T11:41:24.244Z,4.88
2023-05-08T11:43:57.632Z,51.45
2023-05-08T11:46:41.965Z,5.30
2023-05-08T11:49:20.562Z,4.53
2023-05-08T11:51:55.333Z,19.85
2023-05-08T11:54:23.169Z,21.83
2023-05-08T11:56:52.688Z,5.43
2023-05-08T11:59:21.747Z,4.22
2023-05-08T12:02:06.765Z,3.67
2023-05-08T12:04:47.247Z,5.00
2023-05-08T12:07:16.060Z,6.13
2023-05-08T12:09:43.530Z,4.78
2023-05-08T12:12:11.158Z,5.63
2023-05-08T12:14:38.435Z,4.65
2023-05-08T12:17:05.926Z,4.43
2023-05-08T12:19:33.540Z,3.50
2023-05-08T12:22:01.284Z,57.35
2023-05-08T12:24:29.070Z,4.90
2023-05-08T12:26:56.757Z,3.42
2023-05-08T12:29:24.094Z,10.90
2023-05-08T12:31:52.890Z,4.07
2023-05-08T12:34:20.806Z,3.80
2023-05-08T12:36:48.267Z,4.68
2023-05-08T12:39:17.061Z,7.25
2023-05-08T12:41:51.766Z,2.25
2023-05-08T12:44:20.587Z,3.28
2023-05-08T12:46:53.265Z,3.75
2023-05-08T12:49:28.726Z,54.08
2023-05-08T12:52:02.193Z,4.63
2023-05-08T12:54:49.332Z,3.67
2023-05-08T12:57:18.497Z,3.17
2023-05-08T12:59:46.375Z,3.57
2023-05-08T13:02:15.596Z,4.25
2023-05-08T13:04:43.341Z,5.20
2023-05-08T13:07:11.686Z,4.10
2023-05-08T13:09:39.921Z,3.63
2023-05-08T13:12:07.745Z,7.65
2023-05-08T13:14:34.811Z,4.88
2023-05-08T13:17:02.257Z,3.47
2023-05-08T13:19:29.321Z,3.85
2023-05-08T13:21:56.921Z,3.72
2023-05-08T13:24:25.340Z,5.75
2023-05-08T13:26:52.647Z,3.08
2023-05-08T13:29:22.138Z,6.93
2023-05-08T13:31:49.624Z,8.23
2023-05-08T13:34:16.918Z,3.53
2023-05-08T13:36:44.212Z,3.40
2023-05-08T13:39:11.585Z,6.63
2023-05-08T13:41:39.167Z,6.05
2023-05-08T13:44:06.287Z,7.88
2023-05-08T13:46:33.705Z,2.00
2023-05-08T13:49:00.932Z,8.13
2023-05-08T13:51:36.951Z,9.18
2023-05-08T13:54:05.330Z,17.40
2023-05-08T13:56:32.804Z,4.55
2023-05-08T13:59:00.051Z,15.43
2023-05-08T14:01:28.065Z,6.10
2023-05-08T14:03:55.776Z,59.38
2023-05-08T14:06:23.368Z,3.30
2023-05-08T14:08:52.746Z,7.60
2023-05-08T14:11:22.379Z,6.80
2023-05-08T14:13:49.735Z,3.63
2023-05-08T14:16:17.715Z,9.68
2023-05-08T14:18:45.267Z,3.67
2023-05-08T14:21:12.939Z,2.60
2023-05-08T14:23:40.428Z,2.53
2023-05-08T14:26:07.803Z,2.50
2023-05-08T14:28:35.139Z,5.85
2023-05-08T14:31:02.644Z,5.63
2023-05-08T14:33:29.790Z,3.97
2023-05-08T14:35:57.595Z,3.00
2023-05-08T14:42:14.341Z,12.55
2023-05-08T14:46:58.378Z,4.43
2023-05-08T14:49:36.575Z,2.63
2023-05-08T14:52:05.964Z,5.78
2023-05-08T14:54:34.709Z,3.63
2023-05-08T14:57:02.270Z,54.63
2023-05-08T14:59:29.676Z,4.22
2023-05-08T15:01:56.993Z,4.75
2023-05-08T15:04:24.660Z,4.70
2023-05-08T15:06:51.942Z,4.30
2023-05-08T15:09:19.752Z,5.63
2023-05-08T15:11:47.039Z,3.50
2023-05-08T15:14:14.547Z,5.28
2023-05-08T15:16:41.645Z,3.25
2023-05-08T15:19:09.757Z,3.35
2023-05-08T15:21:37.072Z,5.05
2023-05-08T15:24:04.728Z,4.10
2023-05-08T15:26:32.031Z,4.78
2023-05-08T15:28:59.614Z,6.85
2023-05-08T15:31:27.042Z,2.33
2023-05-08T15:33:54.609Z,3.10
2023-05-08T15:36:21.817Z,5.03
2023-05-08T15:38:49.328Z,3.05
2023-05-08T15:41:16.425Z,9.32
2023-05-08T15:43:45.455Z,9.27
2023-05-08T15:46:12.828Z,4.72
2023-05-08T15:48:40.228Z,3.80
2023-05-08T15:51:07.348Z,3.10
2023-05-08T15:53:35.360Z,5.43
2023-05-08T15:56:02.700Z,3.67
2023-05-08T15:58:30.128Z,4.85
2023-05-08T16:00:57.890Z,8.05
2023-05-08T16:03:25.440Z,6.45
2023-05-08T16:05:52.727Z,5.75
2023-05-08T16:08:20.565Z,4.38
2023-05-08T16:10:48.635Z,5.35
2023-05-08T16:13:16.782Z,25.98
2023-05-08T16:15:44.333Z,7.35
2023-05-08T16:18:11.939Z,6.85
2023-05-08T16:20:41.652Z,4.05
2023-05-08T16:23:09.361Z,3.47
2023-05-08T16:25:36.572Z,7.53
2023-05-08T16:28:04.138Z,4.90
2023-05-08T16:30:31.634Z,28.05
2023-05-08T16:32:59.228Z,7.47
2023-05-08T16:35:26.813Z,5.22
2023-05-08T16:37:54.371Z,7.05
2023-05-08T16:40:22.581Z,7.97
2023-05-08T16:42:51.112Z,9.52
2023-05-08T16:45:21.201Z,5.25
2023-05-08T16:47:49.513Z,7.57
2023-05-08T16:50:17.289Z,6.93
2023-05-08T16:56:55.026Z,7.60
2023-05-08T16:59:22.992Z,5.57
2023-05-08T17:01:50.521Z,4.30
2023-05-08T17:04:18.332Z,6.55
2023-05-08T17:06:45.849Z,70.93
2023-05-08T17:09:13.288Z,53.33
2023-05-08T17:11:40.482Z,12.32
2023-05-08T17:14:08.102Z,11.00
2023-05-08T17:16:35.376Z,10.02
2023-05-08T17:19:02.845Z,16.38
2023-05-08T17:21:32.102Z,7.35
2023-05-08T17:24:00.867Z,12.50
2023-05-08T17:26:28.325Z,4.68
2023-05-08T17:28:56.211Z,5.85
2023-05-08T17:31:23.437Z,8.50
2023-05-08T17:33:51.068Z,10.18
2023-05-08T17:36:18.341Z,6.55
2023-05-08T17:38:47.245Z,5.65
2023-05-08T17:41:15.033Z,8.45
2023-05-08T17:43:42.529Z,11.25
2023-05-08T17:46:10.724Z,8.73
2023-05-08T17:48:38.862Z,8.50
2023-05-08T17:51:05.990Z,10.43
2023-05-08T17:53:33.694Z,7.15
2023-05-08T17:56:01.218Z,5.60
2023-05-08T17:58:28.804Z,6.07
2023-05-08T18:00:56.994Z,6.00
2023-05-08T18:03:25.278Z,9.88
2023-05-08T18:05:52.419Z,23.98
2023-05-08T18:08:19.787Z,19.40
2023-05-08T18:10:47.189Z,21.00
2023-05-08T18:13:14.831Z,10.45
2023-05-08T18:15:44.649Z,8.95
2023-05-08T18:18:38.010Z,14.50
2023-05-08T18:21:17.384Z,10.32
2023-05-08T18:23:56.311Z,12.20
2023-05-08T18:26:23.844Z,19.73
2023-05-08T18:28:51.448Z,21.27
2023-05-08T18:31:19.013Z,44.90
2023-05-08T18:33:46.986Z,40.08
2023-05-08T18:36:14.706Z,32.25
2023-05-08T18:38:42.606Z,28.42
2023-05-08T18:42:16.977Z,26.98
2023-05-08T18:44:44.884Z,56.47
2023-05-08T18:47:12.269Z,31.58
2023-05-08T18:49:40.012Z,33.72
2023-05-08T18:52:08.154Z,29.73
2023-05-08T18:54:35.864Z,26.85
2023-05-08T18:57:03.154Z,14.48
2023-05-08T18:59:30.939Z,16.17
2023-05-08T19:01:59.514Z,25.02
2023-05-08T19:04:28.122Z,19.48
2023-05-08T19:06:55.899Z,13.45
2023-05-08T19:09:23.561Z,15.27
2023-05-08T19:11:50.849Z,12.35
2023-05-08T19:14:18.540Z,12.43
2023-05-08T19:16:45.850Z,65.63
2023-05-08T19:19:13.668Z,37.83
2023-05-08T19:21:40.942Z,38.83
2023-05-08T19:24:09.041Z,31.05
2023-05-08T19:26:37.029Z,38.38
2023-05-08T19:29:04.863Z,37.38
2023-05-08T19:31:32.597Z,114.45
2023-05-08T19:34:01.591Z,78.70
2023-05-08T19:36:29.676Z,77.20
2023-05-08T19:38:57.749Z,54.00
2023-05-08T19:41:25.569Z,45.65
2023-05-08T19:43:53.452Z,38.25
2023-05-08T19:46:21.248Z,40.42
2023-05-08T19:48:49.119Z,36.63
2023-05-08T19:51:16.902Z,40.92
2023-05-08T19:53:45.473Z,33.05
2023-05-08T19:56:13.543Z,32.35
2023-05-08T19:58:41.505Z,35.40
2023-05-08T20:01:09.011Z,22.42
2023-05-08T20:03:36.421Z,24.25
2023-05-08T20:06:04.520Z,38.83
2023-05-08T20:08:32.484Z,36.33
2023-05-08T20:11:04.061Z,58.80
2023-05-08T20:13:31.384Z,52.40
2023-05-08T20:15:59.025Z,157.90
2023-05-08T20:18:26.412Z,45.45
2023-05-08T20:20:54.077Z,68.13
2023-05-08T20:23:21.484Z,44.05
2023-05-08T20:25:49.259Z,72.47
2023-05-08T20:28:22.267Z,77.75
2023-05-08T20:30:50.128Z,66.38
2023-05-08T20:33:29.386Z,57.53
2023-05-08T20:35:57.334Z,54.75
2023-05-08T20:38:26.084Z,32.35
2023-05-08T20:41:00.138Z,24.10
2023-05-08T20:43:29.266Z,18.90
2023-05-08T20:45:56.941Z,26.83
2023-05-08T20:48:27.751Z,20.40
2023-05-08T20:50:55.283Z,22.50
2023-05-08T20:53:23.428Z,15.18
2023-05-08T20:55:51.273Z,10.25
2023-05-08T20:58:20.485Z,14.07
2023-05-08T21:00:48.585Z,16.75
2023-05-08T21:03:16.698Z,12.32
2023-05-08T21:05:44.264Z,13.35
2023-05-08T21:08:12.453Z,17.80
2023-05-08T21:10:40.183Z,13.60
2023-05-08T21:13:07.805Z,12.23
2023-05-08T21:15:35.667Z,10.13
2023-05-08T21:18:03.810Z,12.05
2023-05-08T21:20:34.140Z,9.77
2023-05-08T21:23:01.859Z,13.82
2023-05-08T21:25:30.873Z,14.55
2023-05-08T21:27:58.269Z,12.15
2023-05-08T21:30:26.079Z,12.93
2023-05-08T21:32:53.868Z,13.00
2023-05-08T21:35:21.515Z,10.77
2023-05-08T21:37:53.248Z,11.70
2023-05-08T21:40:22.192Z,15.82
2023-05-08T21:42:49.341Z,12.95
2023-05-08T21:45:16.939Z,16.83
2023-05-08T21:47:44.030Z,11.23
2023-05-08T21:50:11.610Z,10.45
2023-05-08T21:52:38.879Z,11.00
2023-05-08T21:55:08.763Z,7.95
2023-05-08T21:57:36.090Z,15.07
2023-05-08T22:00:05.815Z,19.08
2023-05-08T22:02:33.956Z,42.00
2023-05-08T22:05:02.017Z,23.80
2023-05-08T22:07:29.335Z,26.10
2023-05-08T22:09:57.003Z,25.75
2023-05-08T22:12:24.728Z,26.35
2023-05-08T22:14:52.579Z,22.88
2023-05-08T22:17:19.674Z,21.30
2023-05-08T22:19:47.278Z,22.83
2023-05-08T22:22:14.766Z,37.47
2023-05-08T22:24:42.426Z,32.97
2023-05-08T22:27:10.235Z,33.50
2023-05-08T22:29:37.866Z,28.50
2023-05-08T22:32:05.590Z,24.85
2023-05-08T22:34:33.238Z,28.48
2023-05-08T22:37:00.938Z,30.98
2023-05-08T22:39:28.978Z,32.08
2023-05-08T22:41:56.675Z,27.00
2023-05-08T22:44:25.094Z,26.05
2023-05-08T22:46:53.122Z,26.33
2023-05-08T22:49:21.138Z,18.23
2023-05-08T22:51:50.377Z,14.32
2023-05-08T22:54:20.947Z,14.38
2023-05-08T22:56:48.530Z,16.70
2023-05-08T22:59:16.403Z,18.00
2023-05-08T23:01:44.247Z,18.80
2023-05-08T23:04:12.034Z,19.55
2023-05-08T23:06:40.475Z,23.85
2023-05-08T23:09:08.571Z,18.60
2023-05-08T23:11:35.971Z,21.33
2023-05-08T23:14:03.747Z,22.55
2023-05-08T23:16:31.266Z,21.05
2023-05-08T23:18:58.819Z,23.10
2023-05-08T23:21:26.185Z,21.05
2023-05-08T23:23:54.491Z,23.50
2023-05-08T23:26:22.640Z,20.27
2023-05-08T23:28:50.163Z,24.45
2023-05-08T23:31:18.590Z,23.50
2023-05-08T23:33:46.586Z,20.58
2023-05-08T23:36:14.264Z,19.92
2023-05-08T23:38:42.633Z,14.35
2023-05-08T23:41:11.559Z,12.38
2023-05-08T23:43:39.155Z,13.77
2023-05-08T23:46:14.096Z,12.13
2023-05-08T23:48:41.597Z,14.23
2023-05-08T23:51:11.391Z,12.80
2023-05-08T23:53:39.623Z,18.98
2023-05-08T23:56:07.338Z,16.10
2023-05-08T23:58:34.926Z,18.67
